sensor_id;sensor_type;location;lat;lon;timestamp;P1;durP1;ratioP1;P2;durP2;ratioP2
45358;SDS011;31096;49.292;8.710;2023-02-28T00:04:03;4.47;;;2.57;;
45358;SDS011;31096;49.292;8.710;2023-02-28T00:08:54;5.80;;;2.77;;
45358;SDS011;31096;49.292;8.710;2023-02-28T00:13:45;5.90;;;3.15;;
45358;SDS011;31096;49.292;8.710;2023-02-28T00:18:37;5.03;;;2.70;;
45358;SDS011;31096;49.292;8.710;2023-02-28T00:23:29;4.70;;;2.83;;
45358;SDS011;31096;49.292;8.710;2023-02-28T00:28:20;5.32;;;2.55;;
45358;SDS011;31096;49.292;8.710;2023-02-28T00:33:11;4.87;;;2.93;;
45358;SDS011;31096;49.292;8.710;2023-02-28T00:38:02;5.05;;;2.60;;
45358;SDS011;31096;49.292;8.710;2023-02-28T00:42:52;5.10;;;2.37;;
45358;SDS011;31096;49.292;8.710;2023-02-28T00:47:43;5.78;;;2.72;;
45358;SDS011;31096;49.292;8.710;2023-02-28T00:52:34;4.27;;;2.23;;
45358;SDS011;31096;49.292;8.710;2023-02-28T00:57:24;5.13;;;2.20;;
45358;SDS011;31096;49.292;8.710;2023-02-28T01:02:16;4.28;;;1.95;;
45358;SDS011;31096;49.292;8.710;2023-02-28T01:07:08;4.85;;;2.65;;
45358;SDS011;31096;49.292;8.710;2023-02-28T01:11:59;6.00;;;3.35;;
45358;SDS011;31096;49.292;8.710;2023-02-28T01:16:49;4.60;;;2.73;;
45358;SDS011;31096;49.292;8.710;2023-02-28T01:21:41;4.82;;;2.22;;
45358;SDS011;31096;49.292;8.710;2023-02-28T01:26:32;5.30;;;2.40;;
45358;SDS011;31096;49.292;8.710;2023-02-28T01:31:23;5.35;;;2.70;;
45358;SDS011;31096;49.292;8.710;2023-02-28T01:36:19;4.60;;;2.53;;
45358;SDS011;31096;49.292;8.710;2023-02-28T01:41:14;6.40;;;3.25;;
45358;SDS011;31096;49.292;8.710;2023-02-28T01:46:10;4.93;;;2.90;;
45358;SDS011;31096;49.292;8.710;2023-02-28T01:51:03;5.93;;;3.40;;
45358;SDS011;31096;49.292;8.710;2023-02-28T01:55:59;5.18;;;2.80;;
45358;SDS011;31096;49.292;8.710;2023-02-28T02:00:50;5.23;;;2.97;;
45358;SDS011;31096;49.292;8.710;2023-02-28T02:05:41;4.50;;;2.70;;
45358;SDS011;31096;49.292;8.710;2023-02-28T02:10:51;5.40;;;3.03;;
45358;SDS011;31096;49.292;8.710;2023-02-28T02:37:27;5.43;;;3.20;;
45358;SDS011;31096;49.292;8.710;2023-02-28T02:48:20;6.53;;;3.43;;
45358;SDS011;31096;49.292;8.710;2023-02-28T02:53:15;6.30;;;3.33;;
45358;SDS011;31096;49.292;8.710;2023-02-28T02:58:13;6.10;;;3.08;;
45358;SDS011;31096;49.292;8.710;2023-02-28T03:03:06;5.60;;;3.10;;
45358;SDS011;31096;49.292;8.710;2023-02-28T03:07:58;6.22;;;3.15;;
45358;SDS011;31096;49.292;8.710;2023-02-28T03:12:53;5.43;;;3.03;;
45358;SDS011;31096;49.292;8.710;2023-02-28T03:29:26;6.85;;;2.85;;
45358;SDS011;31096;49.292;8.710;2023-02-28T03:34:25;5.45;;;2.97;;
45358;SDS011;31096;49.292;8.710;2023-02-28T03:39:24;6.03;;;2.93;;
45358;SDS011;31096;49.292;8.710;2023-02-28T03:44:25;5.95;;;3.55;;
45358;SDS011;31096;49.292;8.710;2023-02-28T03:49:23;6.07;;;2.75;;
45358;SDS011;31096;49.292;8.710;2023-02-28T03:54:21;6.20;;;3.80;;
45358;SDS011;31096;49.292;8.710;2023-02-28T04:04:40;4.83;;;2.63;;
45358;SDS011;31096;49.292;8.710;2023-02-28T04:09:34;6.05;;;3.08;;
45358;SDS011;31096;49.292;8.710;2023-02-28T04:14:25;5.53;;;2.43;;
45358;SDS011;31096;49.292;8.710;2023-02-28T04:19:16;6.55;;;3.70;;
45358;SDS011;31096;49.292;8.710;2023-02-28T04:24:08;6.20;;;3.03;;
45358;SDS011;31096;49.292;8.710;2023-02-28T04:29:04;6.22;;;3.75;;
45358;SDS011;31096;49.292;8.710;2023-02-28T04:33:56;6.13;;;3.23;;
45358;SDS011;31096;49.292;8.710;2023-02-28T04:38:47;5.65;;;3.53;;
45358;SDS011;31096;49.292;8.710;2023-02-28T04:43:37;5.77;;;3.40;;
45358;SDS011;31096;49.292;8.710;2023-02-28T04:48:29;6.68;;;3.58;;
45358;SDS011;31096;49.292;8.710;2023-02-28T04:53:21;7.57;;;3.43;;
45358;SDS011;31096;49.292;8.710;2023-02-28T04:58:13;6.45;;;3.42;;
45358;SDS011;31096;49.292;8.710;2023-02-28T05:03:04;5.23;;;2.80;;
45358;SDS011;31096;49.292;8.710;2023-02-28T05:07:54;7.18;;;4.10;;
45358;SDS011;31096;49.292;8.710;2023-02-28T05:12:46;6.50;;;3.33;;
45358;SDS011;31096;49.292;8.710;2023-02-28T05:17:37;6.63;;;3.15;;
45358;SDS011;31096;49.292;8.710;2023-02-28T05:22:28;5.37;;;3.07;;
45358;SDS011;31096;49.292;8.710;2023-02-28T05:27:19;6.23;;;3.30;;
45358;SDS011;31096;49.292;8.710;2023-02-28T05:32:10;7.30;;;4.22;;
45358;SDS011;31096;49.292;8.710;2023-02-28T05:37:01;8.20;;;3.87;;
45358;SDS011;31096;49.292;8.710;2023-02-28T05:41:52;7.60;;;3.38;;
45358;SDS011;31096;49.292;8.710;2023-02-28T05:46:42;7.37;;;3.50;;
45358;SDS011;31096;49.292;8.710;2023-02-28T05:51:33;7.23;;;4.23;;
45358;SDS011;31096;49.292;8.710;2023-02-28T05:56:26;6.70;;;4.18;;
45358;SDS011;31096;49.292;8.710;2023-02-28T06:06:24;6.97;;;3.85;;
45358;SDS011;31096;49.292;8.710;2023-02-28T06:11:15;7.13;;;3.73;;
45358;SDS011;31096;49.292;8.710;2023-02-28T06:16:05;6.07;;;3.42;;
45358;SDS011;31096;49.292;8.710;2023-02-28T06:20:57;6.00;;;3.47;;
45358;SDS011;31096;49.292;8.710;2023-02-28T06:25:48;7.88;;;4.28;;
45358;SDS011;31096;49.292;8.710;2023-02-28T06:30:39;7.40;;;4.17;;
45358;SDS011;31096;49.292;8.710;2023-02-28T06:35:30;8.48;;;4.30;;
45358;SDS011;31096;49.292;8.710;2023-02-28T06:40:21;6.80;;;3.93;;
45358;SDS011;31096;49.292;8.710;2023-02-28T06:45:12;8.18;;;4.43;;
45358;SDS011;31096;49.292;8.710;2023-02-28T06:50:02;6.77;;;3.83;;
45358;SDS011;31096;49.292;8.710;2023-02-28T06:54:54;7.00;;;3.97;;
45358;SDS011;31096;49.292;8.710;2023-02-28T06:59:49;8.73;;;4.53;;
45358;SDS011;31096;49.292;8.710;2023-02-28T07:04:40;8.32;;;3.80;;
45358;SDS011;31096;49.292;8.710;2023-02-28T07:09:34;8.53;;;4.57;;
45358;SDS011;31096;49.292;8.710;2023-02-28T07:14:25;7.13;;;4.25;;
45358;SDS011;31096;49.292;8.710;2023-02-28T07:19:16;6.93;;;3.97;;
45358;SDS011;31096;49.292;8.710;2023-02-28T07:24:06;9.60;;;5.37;;
45358;SDS011;31096;49.292;8.710;2023-02-28T07:28:57;9.02;;;5.10;;
45358;SDS011;31096;49.292;8.710;2023-02-28T07:33:53;8.38;;;5.13;;
45358;SDS011;31096;49.292;8.710;2023-02-28T07:38:44;8.20;;;4.78;;
45358;SDS011;31096;49.292;8.710;2023-02-28T07:43:39;7.45;;;4.40;;
45358;SDS011;31096;49.292;8.710;2023-02-28T07:48:30;9.15;;;5.20;;
45358;SDS011;31096;49.292;8.710;2023-02-28T07:53:21;7.00;;;4.67;;
45358;SDS011;31096;49.292;8.710;2023-02-28T07:58:12;10.48;;;5.57;;
45358;SDS011;31096;49.292;8.710;2023-02-28T08:03:02;8.17;;;5.30;;
45358;SDS011;31096;49.292;8.710;2023-02-28T08:07:53;9.57;;;4.63;;
45358;SDS011;31096;49.292;8.710;2023-02-28T08:12:44;10.10;;;6.05;;
45358;SDS011;31096;49.292;8.710;2023-02-28T08:17:35;9.73;;;5.63;;
45358;SDS011;31096;49.292;8.710;2023-02-28T08:22:25;9.50;;;4.77;;
45358;SDS011;31096;49.292;8.710;2023-02-28T08:27:16;8.55;;;5.15;;
45358;SDS011;31096;49.292;8.710;2023-02-28T08:32:07;7.47;;;4.17;;
45358;SDS011;31096;49.292;8.710;2023-02-28T08:36:58;10.10;;;5.40;;
45358;SDS011;31096;49.292;8.710;2023-02-28T08:41:49;8.98;;;5.22;;
45358;SDS011;31096;49.292;8.710;2023-02-28T08:46:39;11.40;;;5.40;;
45358;SDS011;31096;49.292;8.710;2023-02-28T08:51:30;7.88;;;4.25;;
45358;SDS011;31096;49.292;8.710;2023-02-28T08:56:21;9.47;;;4.93;;
45358;SDS011;31096;49.292;8.710;2023-02-28T09:01:16;9.00;;;5.55;;
45358;SDS011;31096;49.292;8.710;2023-02-28T09:06:12;9.93;;;5.37;;
45358;SDS011;31096;49.292;8.710;2023-02-28T09:11:05;9.32;;;5.75;;
45358;SDS011;31096;49.292;8.710;2023-02-28T09:15:59;9.97;;;5.63;;
45358;SDS011;31096;49.292;8.710;2023-02-28T09:20:52;10.60;;;6.00;;
45358;SDS011;31096;49.292;8.710;2023-02-28T09:25:46;11.82;;;6.07;;
45358;SDS011;31096;49.292;8.710;2023-02-28T09:30:44;11.83;;;6.20;;
45358;SDS011;31096;49.292;8.710;2023-02-28T09:35:35;8.98;;;4.75;;
45358;SDS011;31096;49.292;8.710;2023-02-28T09:40:27;9.87;;;5.20;;
45358;SDS011;31096;49.292;8.710;2023-02-28T09:45:27;11.70;;;5.50;;
45358;SDS011;31096;49.292;8.710;2023-02-28T09:55:22;11.38;;;6.95;;
45358;SDS011;31096;49.292;8.710;2023-02-28T10:00:45;12.68;;;6.15;;
45358;SDS011;31096;49.292;8.710;2023-02-28T10:05:38;10.20;;;5.90;;
45358;SDS011;31096;49.292;8.710;2023-02-28T10:10:35;9.93;;;5.88;;
45358;SDS011;31096;49.292;8.710;2023-02-28T10:15:35;9.87;;;5.57;;
45358;SDS011;31096;49.292;8.710;2023-02-28T10:20:26;11.50;;;7.00;;
45358;SDS011;31096;49.292;8.710;2023-02-28T10:25:21;11.05;;;6.45;;
45358;SDS011;31096;49.292;8.710;2023-02-28T10:30:16;12.23;;;6.45;;
45358;SDS011;31096;49.292;8.710;2023-02-28T10:40:30;12.17;;;6.50;;
45358;SDS011;31096;49.292;8.710;2023-02-28T10:45:25;11.38;;;6.05;;
45358;SDS011;31096;49.292;8.710;2023-02-28T10:55:39;12.68;;;6.78;;
45358;SDS011;31096;49.292;8.710;2023-02-28T11:00:35;9.48;;;5.57;;
45358;SDS011;31096;49.292;8.710;2023-02-28T11:05:30;9.60;;;5.93;;
45358;SDS011;31096;49.292;8.710;2023-02-28T11:10:24;11.90;;;6.85;;
45358;SDS011;31096;49.292;8.710;2023-02-28T11:15:23;9.70;;;5.90;;
45358;SDS011;31096;49.292;8.710;2023-02-28T11:25:22;13.00;;;7.43;;
45358;SDS011;31096;49.292;8.710;2023-02-28T11:40:30;10.77;;;7.07;;
45358;SDS011;31096;49.292;8.710;2023-02-28T11:45:58;10.38;;;6.10;;
45358;SDS011;31096;49.292;8.710;2023-02-28T12:06:56;12.40;;;7.53;;
45358;SDS011;31096;49.292;8.710;2023-02-28T12:22:32;11.20;;;6.37;;
45358;SDS011;31096;49.292;8.710;2023-02-28T12:27:45;8.80;;;5.45;;
45358;SDS011;31096;49.292;8.710;2023-02-28T12:32:47;12.60;;;7.33;;
45358;SDS011;31096;49.292;8.710;2023-02-28T12:42:58;11.10;;;6.88;;
45358;SDS011;31096;49.292;8.710;2023-02-28T12:47:58;12.40;;;7.47;;
45358;SDS011;31096;49.292;8.710;2023-02-28T12:52:58;14.65;;;8.20;;
45358;SDS011;31096;49.292;8.710;2023-02-28T13:14:02;10.70;;;6.43;;
45358;SDS011;31096;49.292;8.710;2023-02-28T13:19:07;12.35;;;6.97;;
45358;SDS011;31096;49.292;8.710;2023-02-28T13:24:01;11.40;;;7.20;;
45358;SDS011;31096;49.292;8.710;2023-02-28T13:38:47;14.30;;;8.10;;
45358;SDS011;31096;49.292;8.710;2023-02-28T13:49:17;11.43;;;7.60;;
45358;SDS011;31096;49.292;8.710;2023-02-28T14:05:24;12.30;;;8.20;;
45358;SDS011;31096;49.292;8.710;2023-02-28T14:10:23;13.13;;;8.18;;
45358;SDS011;31096;49.292;8.710;2023-02-28T14:20:31;10.82;;;7.13;;
45358;SDS011;31096;49.292;8.710;2023-02-28T14:40:52;12.40;;;8.10;;
45358;SDS011;31096;49.292;8.710;2023-02-28T14:45:48;14.05;;;8.70;;
45358;SDS011;31096;49.292;8.710;2023-02-28T14:50:48;12.05;;;8.18;;
45358;SDS011;31096;49.292;8.710;2023-02-28T14:55:44;12.87;;;7.67;;
45358;SDS011;31096;49.292;8.710;2023-02-28T15:00:40;12.90;;;7.90;;
45358;SDS011;31096;49.292;8.710;2023-02-28T15:05:38;12.40;;;8.07;;
45358;SDS011;31096;49.292;8.710;2023-02-28T15:10:29;13.07;;;7.65;;
45358;SDS011;31096;49.292;8.710;2023-02-28T15:15:20;12.87;;;7.67;;
45358;SDS011;31096;49.292;8.710;2023-02-28T15:20:14;13.60;;;7.95;;
45358;SDS011;31096;49.292;8.710;2023-02-28T15:25:05;12.32;;;7.60;;
45358;SDS011;31096;49.292;8.710;2023-02-28T15:30:12;13.13;;;8.30;;
45358;SDS011;31096;49.292;8.710;2023-02-28T15:40:16;13.67;;;7.67;;
45358;SDS011;31096;49.292;8.710;2023-02-28T15:45:29;10.77;;;6.95;;
45358;SDS011;31096;49.292;8.710;2023-02-28T15:50:30;15.35;;;7.97;;
45358;SDS011;31096;49.292;8.710;2023-02-28T16:00:20;14.43;;;7.20;;
45358;SDS011;31096;49.292;8.710;2023-02-28T16:05:25;12.40;;;8.03;;
45358;SDS011;31096;49.292;8.710;2023-02-28T16:10:18;14.35;;;7.35;;
45358;SDS011;31096;49.292;8.710;2023-02-28T16:15:15;15.10;;;8.60;;
45358;SDS011;31096;49.292;8.710;2023-02-28T16:20:20;16.33;;;7.72;;
45358;SDS011;31096;49.292;8.710;2023-02-28T16:25:19;12.93;;;7.60;;
45358;SDS011;31096;49.292;8.710;2023-02-28T16:30:18;13.90;;;7.93;;
45358;SDS011;31096;49.292;8.710;2023-02-28T16:35:14;14.10;;;7.97;;
45358;SDS011;31096;49.292;8.710;2023-02-28T16:40:13;13.00;;;7.43;;
45358;SDS011;31096;49.292;8.710;2023-02-28T16:45:06;13.55;;;7.10;;
45358;SDS011;31096;49.292;8.710;2023-02-28T16:50:21;12.25;;;7.28;;
45358;SDS011;31096;49.292;8.710;2023-02-28T16:55:19;12.68;;;7.43;;
45358;SDS011;31096;49.292;8.710;2023-02-28T17:00:18;11.63;;;7.43;;
45358;SDS011;31096;49.292;8.710;2023-02-28T17:05:15;12.23;;;7.00;;
45358;SDS011;31096;49.292;8.710;2023-02-28T17:10:16;14.52;;;7.22;;
45358;SDS011;31096;49.292;8.710;2023-02-28T17:15:16;14.80;;;7.18;;
45358;SDS011;31096;49.292;8.710;2023-02-28T17:20:18;14.82;;;7.35;;
45358;SDS011;31096;49.292;8.710;2023-02-28T17:25:14;16.17;;;7.50;;
45358;SDS011;31096;49.292;8.710;2023-02-28T17:30:26;13.73;;;7.77;;
45358;SDS011;31096;49.292;8.710;2023-02-28T17:35:17;15.43;;;7.45;;
45358;SDS011;31096;49.292;8.710;2023-02-28T17:40:19;14.13;;;7.00;;
45358;SDS011;31096;49.292;8.710;2023-02-28T17:45:13;11.68;;;6.65;;
45358;SDS011;31096;49.292;8.710;2023-02-28T17:50:05;13.00;;;7.30;;
45358;SDS011;31096;49.292;8.710;2023-02-28T17:54:56;15.05;;;6.47;;
45358;SDS011;31096;49.292;8.710;2023-02-28T17:59:47;13.33;;;6.93;;
45358;SDS011;31096;49.292;8.710;2023-02-28T18:04:37;15.82;;;7.97;;
45358;SDS011;31096;49.292;8.710;2023-02-28T18:09:28;14.63;;;7.10;;
45358;SDS011;31096;49.292;8.710;2023-02-28T18:14:20;16.17;;;7.60;;
45358;SDS011;31096;49.292;8.710;2023-02-28T18:19:13;15.65;;;8.23;;
45358;SDS011;31096;49.292;8.710;2023-02-28T18:24:04;16.57;;;8.13;;
45358;SDS011;31096;49.292;8.710;2023-02-28T18:28:55;15.63;;;8.32;;
45358;SDS011;31096;49.292;8.710;2023-02-28T18:33:50;15.27;;;7.57;;
45358;SDS011;31096;49.292;8.710;2023-02-28T18:38:41;15.88;;;7.45;;
45358;SDS011;31096;49.292;8.710;2023-02-28T18:43:33;13.77;;;6.70;;
45358;SDS011;31096;49.292;8.710;2023-02-28T18:48:27;16.77;;;7.50;;
45358;SDS011;31096;49.292;8.710;2023-02-28T18:53:17;12.00;;;6.80;;
45358;SDS011;31096;49.292;8.710;2023-02-28T18:58:09;13.25;;;7.47;;
45358;SDS011;31096;49.292;8.710;2023-02-28T19:03:00;12.15;;;6.80;;
45358;SDS011;31096;49.292;8.710;2023-02-28T19:07:51;12.47;;;7.17;;
45358;SDS011;31096;49.292;8.710;2023-02-28T19:12:41;11.67;;;6.73;;
45358;SDS011;31096;49.292;8.710;2023-02-28T19:17:32;13.88;;;6.78;;
45358;SDS011;31096;49.292;8.710;2023-02-28T19:22:23;14.10;;;6.60;;
45358;SDS011;31096;49.292;8.710;2023-02-28T19:27:15;13.77;;;6.95;;
45358;SDS011;31096;49.292;8.710;2023-02-28T19:32:08;18.10;;;7.30;;
45358;SDS011;31096;49.292;8.710;2023-02-28T19:36:59;12.98;;;6.75;;
45358;SDS011;31096;49.292;8.710;2023-02-28T19:41:49;14.30;;;6.73;;
45358;SDS011;31096;49.292;8.710;2023-02-28T19:46:40;13.35;;;6.90;;
45358;SDS011;31096;49.292;8.710;2023-02-28T19:51:31;13.65;;;6.13;;
45358;SDS011;31096;49.292;8.710;2023-02-28T19:56:23;10.43;;;6.13;;
45358;SDS011;31096;49.292;8.710;2023-02-28T20:01:14;11.75;;;6.15;;
45358;SDS011;31096;49.292;8.710;2023-02-28T20:06:09;13.43;;;6.70;;
45358;SDS011;31096;49.292;8.710;2023-02-28T20:11:03;11.48;;;6.25;;
45358;SDS011;31096;49.292;8.710;2023-02-28T20:16:00;14.45;;;6.00;;
45358;SDS011;31096;49.292;8.710;2023-02-28T20:20:51;11.83;;;6.60;;
45358;SDS011;31096;49.292;8.710;2023-02-28T20:25:42;13.60;;;7.07;;
45358;SDS011;31096;49.292;8.710;2023-02-28T20:30:33;11.15;;;6.07;;
45358;SDS011;31096;49.292;8.710;2023-02-28T20:35:23;10.70;;;5.33;;
45358;SDS011;31096;49.292;8.710;2023-02-28T20:40:14;10.73;;;6.10;;
45358;SDS011;31096;49.292;8.710;2023-02-28T20:45:05;10.90;;;5.53;;
45358;SDS011;31096;49.292;8.710;2023-02-28T20:49:56;12.43;;;7.07;;
45358;SDS011;31096;49.292;8.710;2023-02-28T20:54:47;13.25;;;5.63;;
45358;SDS011;31096;49.292;8.710;2023-02-28T20:59:38;13.13;;;6.57;;
45358;SDS011;31096;49.292;8.710;2023-02-28T21:04:30;11.52;;;5.35;;
45358;SDS011;31096;49.292;8.710;2023-02-28T21:09:20;13.37;;;5.77;;
45358;SDS011;31096;49.292;8.710;2023-02-28T21:14:12;10.50;;;5.90;;
45358;SDS011;31096;49.292;8.710;2023-02-28T21:19:05;10.50;;;6.13;;
45358;SDS011;31096;49.292;8.710;2023-02-28T21:23:56;11.47;;;6.23;;
45358;SDS011;31096;49.292;8.710;2023-02-28T21:28:54;11.32;;;5.57;;
45358;SDS011;31096;49.292;8.710;2023-02-28T21:33:54;10.03;;;5.50;;
45358;SDS011;31096;49.292;8.710;2023-02-28T21:38:46;10.95;;;5.43;;
45358;SDS011;31096;49.292;8.710;2023-02-28T21:43:40;9.75;;;5.53;;
45358;SDS011;31096;49.292;8.710;2023-02-28T21:48:32;10.85;;;5.63;;
45358;SDS011;31096;49.292;8.710;2023-02-28T21:53:23;9.90;;;5.45;;
45358;SDS011;31096;49.292;8.710;2023-02-28T21:58:13;10.83;;;6.17;;
45358;SDS011;31096;49.292;8.710;2023-02-28T22:03:05;12.48;;;6.10;;
45358;SDS011;31096;49.292;8.710;2023-02-28T22:07:56;10.60;;;5.70;;
45358;SDS011;31096;49.292;8.710;2023-02-28T22:12:47;11.35;;;5.50;;
45358;SDS011;31096;49.292;8.710;2023-02-28T22:17:37;10.70;;;5.83;;
45358;SDS011;31096;49.292;8.710;2023-02-28T22:22:28;11.47;;;5.83;;
45358;SDS011;31096;49.292;8.710;2023-02-28T22:27:18;11.57;;;5.82;;
45358;SDS011;31096;49.292;8.710;2023-02-28T22:32:09;12.38;;;5.70;;
45358;SDS011;31096;49.292;8.710;2023-02-28T22:37:00;12.10;;;6.37;;
45358;SDS011;31096;49.292;8.710;2023-02-28T22:41:53;10.83;;;5.77;;
45358;SDS011;31096;49.292;8.710;2023-02-28T22:46:45;8.55;;;4.85;;
45358;SDS011;31096;49.292;8.710;2023-02-28T22:51:35;11.03;;;5.43;;
45358;SDS011;31096;49.292;8.710;2023-02-28T22:56:27;9.43;;;5.25;;
45358;SDS011;31096;49.292;8.710;2023-02-28T23:01:19;9.97;;;5.17;;
45358;SDS011;31096;49.292;8.710;2023-02-28T23:06:14;10.68;;;5.25;;
45358;SDS011;31096;49.292;8.710;2023-02-28T23:11:18;10.90;;;5.80;;
45358;SDS011;31096;49.292;8.710;2023-02-28T23:16:21;8.57;;;4.93;;
45358;SDS011;31096;49.292;8.710;2023-02-28T23:21:16;11.40;;;5.90;;
45358;SDS011;31096;49.292;8.710;2023-02-28T23:26:07;10.83;;;5.87;;
45358;SDS011;31096;49.292;8.710;2023-02-28T23:31:01;11.73;;;5.90;;
45358;SDS011;31096;49.292;8.710;2023-02-28T23:35:55;9.98;;;5.05;;
45358;SDS011;31096;49.292;8.710;2023-02-28T23:40:46;9.90;;;4.67;;
45358;SDS011;31096;49.292;8.710;2023-02-28T23:45:37;12.85;;;6.05;;
45358;SDS011;31096;49.292;8.710;2023-02-28T23:50:28;10.20;;;5.50;;
45358;SDS011;31096;49.292;8.710;2023-02-28T23:55:19;12.27;;;5.70;;
